createdAt,value
2022-08-18T00:01:05.587Z,21.71
2022-08-18T00:03:53.521Z,21.61
2022-08-18T00:06:19.803Z,21.54
2022-08-18T00:08:46.239Z,21.62
2022-08-18T00:11:12.866Z,21.63
2022-08-18T00:13:39.315Z,21.51
2022-08-18T00:16:06.019Z,21.51
2022-08-18T00:18:32.422Z,21.51
2022-08-18T00:20:58.856Z,21.54
2022-08-18T00:23:25.272Z,21.55
2022-08-18T00:25:52.269Z,21.43
2022-08-18T00:28:19.327Z,21.42
2022-08-18T00:30:50.184Z,21.41
2022-08-18T00:33:20.501Z,21.35
2022-08-18T00:35:46.972Z,21.29
2022-08-18T00:38:24.343Z,21.30
2022-08-18T00:40:54.136Z,21.15
2022-08-18T00:43:42.032Z,21.09
2022-08-18T00:46:12.050Z,21.07
2022-08-18T00:48:38.447Z,21.04
2022-08-18T00:51:14.078Z,20.98
2022-08-18T00:53:45.802Z,21.00
2022-08-18T00:56:22.247Z,20.94
2022-08-18T00:59:11.040Z,20.93
2022-08-18T01:01:39.174Z,20.89
2022-08-18T01:04:11.673Z,20.84
2022-08-18T01:06:51.841Z,20.81
2022-08-18T01:09:18.522Z,20.87
2022-08-18T01:11:45.320Z,20.86
2022-08-18T01:14:18.225Z,20.80
2022-08-18T01:17:07.782Z,20.84
2022-08-18T01:19:53.765Z,20.79
2022-08-18T01:22:37.023Z,20.92
2022-08-18T01:25:26.437Z,20.80
2022-08-18T01:27:55.972Z,20.75
2022-08-18T01:30:26.447Z,20.48
2022-08-18T01:32:53.065Z,20.52
2022-08-18T01:35:22.635Z,20.54
2022-08-18T01:37:49.070Z,20.70
2022-08-18T01:41:06.262Z,20.72
2022-08-18T01:43:05.307Z,20.67
2022-08-18T01:45:33.371Z,20.54
2022-08-18T01:48:00.228Z,20.55
2022-08-18T01:50:27.118Z,20.65
2022-08-18T01:52:53.646Z,20.63
2022-08-18T01:55:20.709Z,20.64
2022-08-18T01:57:47.334Z,20.72
2022-08-18T02:00:17.858Z,20.62
2022-08-18T02:02:44.829Z,20.65
2022-08-18T02:05:18.144Z,20.60
2022-08-18T02:07:44.648Z,20.57
2022-08-18T02:10:12.513Z,20.49
2022-08-18T02:12:43.147Z,20.55
2022-08-18T02:15:11.211Z,20.58
2022-08-18T02:17:39.215Z,20.57
2022-08-18T02:20:08.025Z,20.51
2022-08-18T02:22:34.703Z,20.56
2022-08-18T02:25:01.117Z,20.48
2022-08-18T02:27:28.525Z,20.52
2022-08-18T02:29:56.213Z,20.41
2022-08-18T02:32:22.635Z,20.43
2022-08-18T02:34:50.499Z,20.41
2022-08-18T02:37:17.010Z,20.46
2022-08-18T02:39:43.834Z,20.47
2022-08-18T02:42:10.276Z,20.49
2022-08-18T02:44:36.724Z,20.43
2022-08-18T02:47:03.416Z,20.40
2022-08-18T02:49:29.858Z,20.45
2022-08-18T02:51:56.259Z,20.42
2022-08-18T02:54:23.786Z,20.45
2022-08-18T02:56:52.543Z,20.46
2022-08-18T02:59:23.083Z,20.40
2022-08-18T03:01:51.946Z,20.41
2022-08-18T03:04:29.618Z,20.39
2022-08-18T03:06:59.108Z,20.38
2022-08-18T03:09:25.592Z,20.31
2022-08-18T03:11:53.400Z,20.14
2022-08-18T03:14:19.894Z,20.20
2022-08-18T03:16:53.159Z,20.14
2022-08-18T03:19:22.735Z,20.19
2022-08-18T03:21:49.224Z,20.23
2022-08-18T03:24:22.941Z,20.31
2022-08-18T03:26:51.898Z,20.35
2022-08-18T03:29:19.408Z,20.33
2022-08-18T03:31:48.425Z,20.38
2022-08-18T03:34:16.197Z,20.21
2022-08-18T03:36:42.599Z,20.30
2022-08-18T03:39:11.821Z,20.20
2022-08-18T03:41:58.868Z,20.17
2022-08-18T03:44:33.361Z,20.28
2022-08-18T03:47:02.693Z,20.30
2022-08-18T03:49:29.323Z,20.31
2022-08-18T03:51:56.123Z,20.38
2022-08-18T03:54:22.849Z,20.34
2022-08-18T03:56:49.757Z,20.30
2022-08-18T03:59:20.215Z,20.29
2022-08-18T04:01:49.085Z,20.28
2022-08-18T04:04:19.132Z,20.32
2022-08-18T04:06:53.818Z,20.25
2022-08-18T04:09:21.145Z,20.26
2022-08-18T04:11:48.950Z,20.29
2022-08-18T04:14:18.933Z,20.28
2022-08-18T04:16:46.570Z,20.30
2022-08-18T04:19:14.077Z,20.34
2022-08-18T04:21:52.501Z,20.34
2022-08-18T04:24:18.995Z,20.32
2022-08-18T04:26:47.737Z,20.34
2022-08-18T04:29:16.791Z,20.33
2022-08-18T04:31:43.692Z,20.36
2022-08-18T04:34:10.372Z,20.31
2022-08-18T04:36:37.141Z,20.23
2022-08-18T04:39:07.024Z,20.25
2022-08-18T04:41:34.458Z,20.19
2022-08-18T04:44:04.123Z,20.23
2022-08-18T04:46:35.267Z,20.13
2022-08-18T04:49:01.736Z,20.16
2022-08-18T04:52:27.043Z,20.04
2022-08-18T04:54:16.561Z,20.12
2022-08-18T04:56:43.433Z,20.16
2022-08-18T04:59:12.369Z,20.12
2022-08-18T05:01:45.731Z,20.07
2022-08-18T05:04:14.188Z,19.99
2022-08-18T05:06:43.437Z,19.91
2022-08-18T05:09:12.740Z,19.96
2022-08-18T05:11:44.428Z,20.00
2022-08-18T05:14:11.224Z,20.12
2022-08-18T05:16:48.127Z,20.06
2022-08-18T05:19:19.727Z,20.02
2022-08-18T05:21:50.765Z,19.94
2022-08-18T05:24:19.074Z,19.95
2022-08-18T05:26:45.858Z,20.02
2022-08-18T05:29:18.905Z,20.06
2022-08-18T05:31:47.528Z,20.10
2022-08-18T05:34:14.025Z,20.04
2022-08-18T05:36:46.507Z,20.14
2022-08-18T05:39:21.877Z,20.13
2022-08-18T05:42:06.067Z,20.16
2022-08-18T05:44:37.174Z,20.16
2022-08-18T05:47:10.236Z,20.17
2022-08-18T05:49:37.498Z,20.26
2022-08-18T05:52:14.868Z,20.28
2022-08-18T05:55:07.159Z,20.28
2022-08-18T05:57:42.743Z,20.29
2022-08-18T06:00:10.991Z,20.30
2022-08-18T06:02:47.913Z,20.33
2022-08-18T06:05:53.611Z,20.34
2022-08-18T06:08:25.536Z,20.34
2022-08-18T06:10:51.916Z,20.38
2022-08-18T06:13:20.504Z,20.39
2022-08-18T06:16:01.296Z,20.41
2022-08-18T06:18:47.135Z,20.44
2022-08-18T06:21:50.815Z,20.48
2022-08-18T06:24:31.279Z,20.42
2022-08-18T06:27:10.583Z,20.43
2022-08-18T06:29:58.661Z,20.42
2022-08-18T06:32:47.174Z,20.34
2022-08-18T06:35:28.658Z,20.30
2022-08-18T06:38:38.838Z,20.31
2022-08-18T06:41:40.971Z,20.38
2022-08-18T06:44:01.673Z,20.38
2022-08-18T06:46:56.119Z,20.44
2022-08-18T06:49:48.406Z,20.43
2022-08-18T06:52:29.057Z,20.51
2022-08-18T06:55:13.851Z,20.49
2022-08-18T06:57:54.919Z,20.54
2022-08-18T07:00:23.871Z,20.51
2022-08-18T07:02:56.421Z,20.54
2022-08-18T07:05:30.222Z,20.53
2022-08-18T07:08:21.226Z,20.61
2022-08-18T07:10:51.378Z,20.67
2022-08-18T07:13:26.750Z,20.77
2022-08-18T07:16:56.537Z,20.79
2022-08-18T07:19:20.633Z,20.84
2022-08-18T07:22:02.161Z,20.88
2022-08-18T07:24:56.252Z,20.92
2022-08-18T07:27:41.407Z,20.95
2022-08-18T07:30:32.297Z,20.96
2022-08-18T07:33:04.866Z,20.95
2022-08-18T07:35:57.318Z,20.94
2022-08-18T07:38:46.774Z,20.94
2022-08-18T07:41:49.018Z,20.95
2022-08-18T07:44:25.141Z,20.92
2022-08-18T07:47:03.800Z,20.90
2022-08-18T07:49:36.135Z,20.91
2022-08-18T07:52:22.588Z,20.93
2022-08-18T07:55:17.801Z,20.93
2022-08-18T07:58:04.990Z,20.95
2022-08-18T08:00:58.730Z,20.99
2022-08-18T08:03:31.940Z,21.01
2022-08-18T08:06:12.493Z,21.03
2022-08-18T08:09:06.595Z,21.03
2022-08-18T08:11:50.053Z,21.04
2022-08-18T08:14:41.300Z,21.03
2022-08-18T08:17:13.732Z,21.05
2022-08-18T08:20:12.329Z,21.08
2022-08-18T08:23:04.543Z,21.07
2022-08-18T08:25:46.403Z,21.03
2022-08-18T08:28:22.988Z,21.00
2022-08-18T08:34:16.973Z,20.91
2022-08-18T08:36:46.623Z,20.84
2022-08-18T08:39:25.966Z,20.89
2022-08-18T08:42:31.714Z,20.81
2022-08-18T08:45:01.009Z,20.82
2022-08-18T08:47:36.525Z,20.82
2022-08-18T08:50:08.887Z,20.85
2022-08-18T08:52:47.658Z,20.88
2022-08-18T08:55:21.479Z,20.86
2022-08-18T08:57:53.869Z,20.84
2022-08-18T09:00:21.115Z,20.87
2022-08-18T09:03:00.608Z,20.91
2022-08-18T09:05:37.433Z,20.92
2022-08-18T09:08:34.539Z,20.97
2022-08-18T09:11:10.676Z,21.02
2022-08-18T09:14:12.321Z,21.08
2022-08-18T09:17:10.889Z,21.17
2022-08-18T09:19:56.493Z,21.26
2022-08-18T09:22:47.779Z,21.25
2022-08-18T09:25:50.063Z,21.27
2022-08-18T09:28:29.985Z,21.26
2022-08-18T09:31:08.915Z,21.27
2022-08-18T09:33:42.331Z,21.31
2022-08-18T09:36:36.057Z,21.30
2022-08-18T09:39:36.499Z,21.35
2022-08-18T09:42:11.936Z,21.38
2022-08-18T09:44:42.859Z,21.43
2022-08-18T09:47:10.075Z,21.44
2022-08-18T09:49:47.891Z,21.46
2022-08-18T09:52:20.545Z,21.48
2022-08-18T09:54:58.574Z,21.50
2022-08-18T09:57:28.214Z,21.53
2022-08-18T09:59:58.001Z,21.55
2022-08-18T10:02:31.895Z,21.57
2022-08-18T10:05:20.214Z,21.59
2022-08-18T10:07:53.185Z,21.55
2022-08-18T10:11:00.399Z,21.54
2022-08-18T10:13:31.577Z,21.58
2022-08-18T10:16:17.026Z,21.60
2022-08-18T10:19:01.737Z,21.59
2022-08-18T10:21:31.370Z,21.61
2022-08-18T10:24:29.797Z,21.62
2022-08-18T10:26:54.132Z,21.62
2022-08-18T10:29:24.714Z,21.66
2022-08-18T10:31:57.670Z,21.66
2022-08-18T10:34:37.110Z,21.66
2022-08-18T10:40:13.137Z,21.62
2022-08-18T10:42:39.794Z,21.59
2022-08-18T10:45:09.871Z,21.59
2022-08-18T10:47:36.609Z,21.57
2022-08-18T10:50:04.177Z,21.57
2022-08-18T10:52:45.876Z,21.55
2022-08-18T10:58:48.507Z,21.60
2022-08-18T11:01:35.565Z,21.68
2022-08-18T11:07:00.879Z,21.78
2022-08-18T11:09:28.670Z,21.83
2022-08-18T11:11:59.494Z,21.85
2022-08-18T11:14:51.099Z,21.86
2022-08-18T11:17:44.754Z,21.88
2022-08-18T11:20:13.309Z,21.85
2022-08-18T11:22:49.212Z,21.85
2022-08-18T11:25:19.896Z,21.86
2022-08-18T11:27:47.383Z,21.87
2022-08-18T11:30:15.041Z,21.88
2022-08-18T11:32:55.311Z,21.89
2022-08-18T11:35:24.505Z,21.89
2022-08-18T11:37:56.036Z,21.85
2022-08-18T11:41:08.960Z,21.83
2022-08-18T11:43:15.181Z,21.81
2022-08-18T11:45:52.794Z,21.77
2022-08-18T11:51:23.717Z,21.76
2022-08-18T11:53:59.067Z,21.77
2022-08-18T11:56:31.633Z,21.77
2022-08-18T11:59:07.818Z,21.82
2022-08-18T12:01:41.799Z,21.94
2022-08-18T12:04:21.802Z,22.07
2022-08-18T12:06:51.175Z,22.16
2022-08-18T12:09:54.199Z,22.26
2022-08-18T12:12:28.172Z,22.44
2022-08-18T12:15:10.389Z,22.57
2022-08-18T12:17:52.622Z,22.49
2022-08-18T12:20:31.970Z,22.49
2022-08-18T12:22:58.471Z,22.52
2022-08-18T12:25:25.692Z,22.52
2022-08-18T12:27:53.209Z,22.52
2022-08-18T12:30:19.944Z,22.60
2022-08-18T12:32:50.338Z,22.72
2022-08-18T12:35:22.211Z,22.77
2022-08-18T12:38:13.208Z,22.77
2022-08-18T12:40:35.498Z,22.87
2022-08-18T12:43:01.871Z,23.15
2022-08-18T12:45:29.023Z,23.30
2022-08-18T12:47:55.449Z,23.34
2022-08-18T12:50:31.194Z,23.45
2022-08-18T12:53:01.809Z,23.54
2022-08-18T12:55:31.641Z,23.50
2022-08-18T12:57:58.532Z,23.40
2022-08-18T13:00:28.126Z,23.32
2022-08-18T13:02:56.302Z,23.25
2022-08-18T13:05:27.630Z,23.23
2022-08-18T13:07:58.444Z,23.03
2022-08-18T13:10:43.079Z,23.00
2022-08-18T13:13:12.122Z,22.95
2022-08-18T13:15:38.738Z,22.91
2022-08-18T13:18:14.184Z,22.89
2022-08-18T13:20:42.136Z,22.90
2022-08-18T13:23:11.899Z,22.93
2022-08-18T13:25:39.697Z,22.91
2022-08-18T13:28:06.574Z,22.85
2022-08-18T13:30:33.112Z,22.85
2022-08-18T13:33:34.522Z,22.85
2022-08-18T13:35:54.039Z,22.86
2022-08-18T13:38:27.134Z,22.87
2022-08-18T13:40:55.183Z,22.88
2022-08-18T13:43:26.286Z,22.87
2022-08-18T13:45:56.030Z,22.87
2022-08-18T13:48:23.940Z,22.88
2022-08-18T13:50:52.899Z,22.89
2022-08-18T13:53:21.062Z,22.92
2022-08-18T13:55:48.317Z,22.96
2022-08-18T13:58:17.501Z,22.98
2022-08-18T14:00:49.329Z,23.03
2022-08-18T14:03:20.403Z,23.06
2022-08-18T14:06:01.586Z,23.12
2022-08-18T14:08:28.984Z,23.16
2022-08-18T14:10:57.792Z,23.18
2022-08-18T14:13:25.242Z,23.22
2022-08-18T14:15:54.902Z,23.27
2022-08-18T14:18:28.729Z,23.29
2022-08-18T14:21:15.620Z,23.27
2022-08-18T14:24:00.596Z,23.24
2022-08-18T14:26:46.541Z,23.21
2022-08-18T14:29:16.959Z,23.21
2022-08-18T14:31:45.157Z,23.19
2022-08-18T14:34:11.527Z,23.16
2022-08-18T14:36:38.214Z,23.17
2022-08-18T14:39:05.992Z,23.19
2022-08-18T14:41:35.363Z,23.20
2022-08-18T14:44:13.345Z,23.16
2022-08-18T14:46:41.152Z,23.19
2022-08-18T14:49:07.972Z,23.20
2022-08-18T14:51:34.292Z,23.25
2022-08-18T14:54:01.123Z,23.22
2022-08-18T14:56:29.249Z,23.23
2022-08-18T14:58:56.174Z,23.22
2022-08-18T15:01:23.376Z,23.20
2022-08-18T15:03:49.869Z,23.17
2022-08-18T15:06:22.852Z,23.15
2022-08-18T15:08:53.831Z,23.15
2022-08-18T15:11:23.283Z,23.17
2022-08-18T15:13:51.368Z,23.14
2022-08-18T15:16:22.401Z,23.17
2022-08-18T15:18:53.507Z,23.18
2022-08-18T15:21:39.138Z,23.19
2022-08-18T15:24:24.586Z,23.15
2022-08-18T15:27:05.530Z,23.15
2022-08-18T15:29:32.922Z,23.12
2022-08-18T15:32:05.256Z,23.14
2022-08-18T15:34:33.253Z,23.11
2022-08-18T15:37:14.042Z,23.14
2022-08-18T15:39:40.883Z,23.16
2022-08-18T15:42:09.497Z,23.16
2022-08-18T15:44:36.201Z,23.19
2022-08-18T15:47:04.662Z,23.21
2022-08-18T15:49:32.234Z,23.20
2022-08-18T15:52:00.244Z,23.21
2022-08-18T15:54:26.565Z,23.19
2022-08-18T15:56:57.764Z,23.19
2022-08-18T15:59:33.048Z,23.19
2022-08-18T16:02:07.181Z,23.19
2022-08-18T16:04:40.914Z,23.20
2022-08-18T16:07:07.505Z,23.18
2022-08-18T16:09:36.692Z,23.19
2022-08-18T16:12:03.126Z,23.19
2022-08-18T16:14:30.220Z,23.21
2022-08-18T16:16:56.550Z,23.19
2022-08-18T16:19:25.729Z,23.17
2022-08-18T16:21:56.574Z,23.19
2022-08-18T16:24:23.589Z,23.17
2022-08-18T16:26:51.800Z,23.16
2022-08-18T16:29:18.151Z,23.16
2022-08-18T16:31:44.501Z,23.15
2022-08-18T16:34:10.992Z,23.15
2022-08-18T16:36:37.309Z,23.14
2022-08-18T16:39:03.722Z,23.15
2022-08-18T16:41:31.792Z,23.19
2022-08-18T16:43:58.132Z,23.15
2022-08-18T16:46:26.136Z,23.14
2022-08-18T16:48:53.232Z,23.12
2022-08-18T16:51:21.848Z,23.12
2022-08-18T16:53:49.546Z,23.11
2022-08-18T16:56:17.330Z,23.09
2022-08-18T16:59:19.303Z,23.11
2022-08-18T17:02:04.123Z,23.12
2022-08-18T17:04:33.706Z,23.15
2022-08-18T17:07:01.206Z,23.15
2022-08-18T17:09:27.879Z,23.17
2022-08-18T17:11:54.246Z,23.17
2022-08-18T17:14:21.851Z,23.17
2022-08-18T17:16:49.404Z,23.17
2022-08-18T17:19:15.832Z,23.18
2022-08-18T17:21:42.154Z,23.17
2022-08-18T17:24:10.520Z,23.17
2022-08-18T17:26:56.834Z,23.17
2022-08-18T17:29:36.458Z,23.14
2022-08-18T17:32:05.811Z,23.11
2022-08-18T17:34:35.890Z,23.09
2022-08-18T17:37:03.891Z,23.07
2022-08-18T17:39:40.403Z,23.04
2022-08-18T17:42:25.523Z,23.00
2022-08-18T17:44:54.921Z,23.02
2022-08-18T17:47:43.439Z,23.01
2022-08-18T17:50:38.691Z,23.00
2022-08-18T17:53:05.926Z,22.98
2022-08-18T17:55:44.666Z,22.99
2022-08-18T17:58:34.825Z,22.97
2022-08-18T18:01:03.510Z,22.98
2022-08-18T18:03:29.811Z,22.94
2022-08-18T18:05:59.663Z,22.92
2022-08-18T18:08:44.711Z,22.90
2022-08-18T18:11:11.449Z,22.85
2022-08-18T18:13:39.951Z,22.86
2022-08-18T18:16:20.872Z,22.86
2022-08-18T18:18:56.451Z,22.85
2022-08-18T18:21:53.383Z,22.84
2022-08-18T18:24:14.792Z,22.80
2022-08-18T18:26:44.888Z,22.80
2022-08-18T18:29:12.552Z,22.79
2022-08-18T18:31:39.677Z,22.79
2022-08-18T18:34:23.347Z,22.77
2022-08-18T18:36:54.150Z,22.76
2022-08-18T18:39:33.930Z,22.76
2022-08-18T18:42:14.826Z,22.74
2022-08-18T18:44:49.152Z,22.72
2022-08-18T18:47:24.562Z,22.71
2022-08-18T18:49:58.343Z,22.69
2022-08-18T18:52:43.443Z,22.68
2022-08-18T18:55:19.366Z,22.68
2022-08-18T18:57:59.557Z,22.68
2022-08-18T19:00:31.100Z,22.65
2022-08-18T19:03:11.964Z,22.64
2022-08-18T19:05:45.672Z,22.60
2022-08-18T19:08:33.054Z,22.59
2022-08-18T19:11:00.038Z,22.55
2022-08-18T19:13:32.733Z,22.54
2022-08-18T19:16:09.592Z,22.52
2022-08-18T19:18:43.136Z,22.48
2022-08-18T19:22:05.477Z,22.44
2022-08-18T19:24:17.236Z,22.40
2022-08-18T19:26:48.582Z,22.41
2022-08-18T19:29:17.901Z,22.39
2022-08-18T19:31:58.552Z,22.39
2022-08-18T19:34:28.254Z,22.37
2022-08-18T19:37:05.608Z,22.35
2022-08-18T19:39:41.070Z,22.34
2022-08-18T19:42:18.000Z,22.36
2022-08-18T19:45:13.119Z,22.34
2022-08-18T19:47:41.241Z,22.34
2022-08-18T19:50:23.589Z,22.34
2022-08-18T19:53:00.967Z,22.32
2022-08-18T19:55:35.289Z,22.31
2022-08-18T19:58:06.112Z,22.29
2022-08-18T20:00:47.783Z,22.28
2022-08-18T20:03:18.454Z,22.28
2022-08-18T20:06:33.802Z,22.28
2022-08-18T20:08:51.342Z,22.26
2022-08-18T20:11:20.885Z,22.24
2022-08-18T20:14:09.964Z,22.20
2022-08-18T20:16:44.292Z,22.20
2022-08-18T20:19:30.341Z,22.20
2022-08-18T20:22:07.290Z,22.20
2022-08-18T20:24:45.563Z,22.18
2022-08-18T20:27:21.396Z,22.18
2022-08-18T20:29:48.392Z,22.16
2022-08-18T20:32:28.201Z,22.11
2022-08-18T20:35:12.253Z,22.13
2022-08-18T20:37:38.665Z,22.13
2022-08-18T20:40:06.828Z,22.14
2022-08-18T20:42:34.316Z,22.12
2022-08-18T20:45:12.231Z,22.12
2022-08-18T20:47:48.538Z,22.10
2022-08-18T20:50:21.844Z,22.10
2022-08-18T20:52:58.001Z,22.08
2022-08-18T20:55:34.832Z,22.07
2022-08-18T20:58:15.269Z,22.06
2022-08-18T21:00:44.101Z,22.07
2022-08-18T21:03:14.907Z,22.06
2022-08-18T21:05:43.534Z,22.07
2022-08-18T21:08:16.267Z,22.03
2022-08-18T21:10:57.783Z,22.04
2022-08-18T21:13:32.198Z,22.03
2022-08-18T21:15:59.284Z,22.01
2022-08-18T21:18:26.223Z,22.02
2022-08-18T21:20:53.978Z,21.99
2022-08-18T21:23:26.327Z,21.99
2022-08-18T21:25:54.755Z,22.00
2022-08-18T21:28:22.455Z,21.98
2022-08-18T21:30:55.891Z,21.96
2022-08-18T21:33:22.267Z,21.95
2022-08-18T21:35:48.909Z,21.93
2022-08-18T21:38:23.872Z,21.93
2022-08-18T21:40:51.576Z,21.91
2022-08-18T21:43:33.194Z,21.91
2022-08-18T21:46:00.202Z,21.93
2022-08-18T21:48:27.751Z,21.91
2022-08-18T21:50:58.258Z,21.88
2022-08-18T21:53:30.806Z,21.87
2022-08-18T21:55:58.710Z,21.86
2022-08-18T21:58:32.723Z,21.81
2022-08-18T22:01:06.900Z,21.80
2022-08-18T22:03:34.631Z,21.79
2022-08-18T22:06:19.866Z,21.80
2022-08-18T22:08:50.109Z,21.78
2022-08-18T22:11:44.180Z,21.77
2022-08-18T22:14:55.044Z,21.72
2022-08-18T22:17:30.142Z,21.70
2022-08-18T22:20:16.440Z,21.67
2022-08-18T22:23:01.526Z,21.63
2022-08-18T22:25:27.868Z,21.66
2022-08-18T22:27:56.768Z,21.64
2022-08-18T22:30:23.272Z,21.64
2022-08-18T22:32:49.578Z,21.63
2022-08-18T22:35:15.931Z,21.59
2022-08-18T22:37:50.083Z,21.52
2022-08-18T22:40:17.081Z,21.53
2022-08-18T22:42:48.372Z,21.48
2022-08-18T22:45:14.774Z,21.48
2022-08-18T22:47:43.208Z,21.48
2022-08-18T22:50:12.584Z,21.48
2022-08-18T22:52:41.431Z,21.40
2022-08-18T22:55:09.124Z,21.43
2022-08-18T22:57:37.378Z,21.46
2022-08-18T23:00:07.510Z,21.41
2022-08-18T23:02:36.582Z,21.41
2022-08-18T23:05:03.486Z,21.38
2022-08-18T23:07:31.413Z,21.41
2022-08-18T23:09:57.951Z,21.36
2022-08-18T23:12:24.346Z,21.31
2022-08-18T23:14:51.637Z,21.32
2022-08-18T23:17:17.990Z,21.31
2022-08-18T23:19:46.404Z,21.32
2022-08-18T23:22:13.887Z,21.31
2022-08-18T23:24:40.469Z,21.36
2022-08-18T23:27:07.823Z,21.34
2022-08-18T23:29:37.355Z,21.31
2022-08-18T23:32:05.741Z,21.28
2022-08-18T23:34:32.485Z,21.28
2022-08-18T23:37:01.339Z,21.33
2022-08-18T23:39:28.946Z,21.35
2022-08-18T23:41:55.588Z,21.30
2022-08-18T23:44:22.469Z,21.30
2022-08-18T23:46:51.898Z,21.32
2022-08-18T23:49:18.530Z,21.36
2022-08-18T23:51:46.297Z,21.32
2022-08-18T23:54:22.938Z,21.30
2022-08-18T23:56:49.266Z,21.33
2022-08-18T23:59:16.507Z,21.26
